createdAt,value
2017-08-22T00:01:54.943Z,3.60
2017-08-22T00:04:03.753Z,3.70
2017-08-22T00:06:10.248Z,3.03
2017-08-22T00:08:17.186Z,3.40
2017-08-22T00:10:23.493Z,3.50
2017-08-22T00:12:31.066Z,3.70
2017-08-22T00:14:36.848Z,3.40
2017-08-22T00:16:43.513Z,3.53
2017-08-22T00:18:51.520Z,3.33
2017-08-22T00:20:58.786Z,3.67
2017-08-22T00:23:06.366Z,3.23
2017-08-22T00:25:12.546Z,3.47
2017-08-22T00:27:19.026Z,3.67
2017-08-22T00:29:25.497Z,3.10
2017-08-22T00:31:32.935Z,3.90
2017-08-22T00:33:39.010Z,3.67
2017-08-22T00:35:44.900Z,4.20
2017-08-22T00:37:50.564Z,3.33
2017-08-22T00:39:58.361Z,4.03
2017-08-22T00:42:06.619Z,2.97
2017-08-22T00:44:12.930Z,3.60
2017-08-22T00:46:19.100Z,3.90
2017-08-22T00:48:25.198Z,3.20
2017-08-22T00:50:31.539Z,3.73
2017-08-22T00:52:37.099Z,4.23
2017-08-22T00:54:44.152Z,3.43
2017-08-22T00:56:51.620Z,3.40
2017-08-22T00:58:58.143Z,3.30
2017-08-22T01:01:07.443Z,3.20
2017-08-22T01:03:14.013Z,2.97
2017-08-22T01:05:20.825Z,3.90
2017-08-22T01:07:27.011Z,3.80
2017-08-22T01:09:33.643Z,2.80
2017-08-22T01:11:39.735Z,3.40
2017-08-22T01:13:50.034Z,3.50
2017-08-22T01:15:57.006Z,4.10
2017-08-22T01:18:06.382Z,3.20
2017-08-22T01:20:12.454Z,3.87
2017-08-22T01:22:18.918Z,3.43
2017-08-22T01:24:25.918Z,3.80
2017-08-22T01:26:34.008Z,3.50
2017-08-22T01:28:40.823Z,3.40
2017-08-22T01:30:50.624Z,3.47
2017-08-22T01:32:56.592Z,4.10
2017-08-22T01:35:05.614Z,3.43
2017-08-22T01:37:11.866Z,3.60
2017-08-22T01:39:18.260Z,3.47
2017-08-22T01:41:24.496Z,3.23
2017-08-22T01:43:31.141Z,3.60
2017-08-22T01:45:37.312Z,3.73
2017-08-22T01:47:45.246Z,3.57
2017-08-22T01:49:53.497Z,3.60
2017-08-22T01:52:05.928Z,3.20
2017-08-22T01:54:12.127Z,3.40
2017-08-22T01:56:18.947Z,3.60
2017-08-22T01:58:25.315Z,3.53
2017-08-22T02:00:32.890Z,3.50
2017-08-22T02:02:38.927Z,3.60
2017-08-22T02:04:45.738Z,3.13
2017-08-22T02:06:53.981Z,4.37
2017-08-22T02:09:05.062Z,3.23
2017-08-22T02:11:11.033Z,3.10
2017-08-22T02:13:17.790Z,3.80
2017-08-22T02:15:23.924Z,4.13
2017-08-22T02:17:29.791Z,3.90
2017-08-22T02:19:36.369Z,3.30
2017-08-22T02:21:43.264Z,3.73
2017-08-22T02:23:50.067Z,4.17
2017-08-22T02:25:56.206Z,4.50
2017-08-22T02:28:06.549Z,4.07
2017-08-22T02:30:12.615Z,3.77
2017-08-22T02:32:32.992Z,4.17
2017-08-22T02:34:39.794Z,4.10
2017-08-22T02:39:27.556Z,4.17
2017-08-22T02:41:34.156Z,3.47
2017-08-22T02:43:40.184Z,3.70
2017-08-22T02:45:46.340Z,3.90
2017-08-22T02:47:54.993Z,4.00
2017-08-22T02:50:04.521Z,3.73
2017-08-22T02:52:11.457Z,3.80
2017-08-22T02:54:17.786Z,4.03
2017-08-22T02:56:24.317Z,4.80
2017-08-22T02:58:30.288Z,3.23
2017-08-22T03:00:35.832Z,3.80
2017-08-22T03:02:42.434Z,4.17
2017-08-22T03:04:48.294Z,3.87
2017-08-22T03:06:56.963Z,3.67
2017-08-22T03:09:07.167Z,4.33
2017-08-22T03:11:12.777Z,3.87
2017-08-22T03:13:18.927Z,3.77
2017-08-22T03:15:25.410Z,3.97
2017-08-22T03:17:31.606Z,3.90
2017-08-22T03:19:37.689Z,4.40
2017-08-22T03:21:44.359Z,3.80
2017-08-22T03:23:55.250Z,3.50
2017-08-22T03:26:05.423Z,3.87
2017-08-22T03:28:11.435Z,4.30
2017-08-22T03:30:17.986Z,4.50
2017-08-22T03:32:23.763Z,8.60
2017-08-22T03:34:30.426Z,5.53
2017-08-22T03:36:36.962Z,8.77
2017-08-22T03:38:47.834Z,5.83
2017-08-22T03:40:57.549Z,5.40
2017-08-22T03:43:07.666Z,12.70
2017-08-22T03:45:13.580Z,6.10
2017-08-22T03:47:19.822Z,5.90
2017-08-22T03:49:25.959Z,5.53
2017-08-22T03:51:32.663Z,5.67
2017-08-22T03:53:38.830Z,5.53
2017-08-22T03:55:46.455Z,5.40
2017-08-22T03:57:54.403Z,6.07
2017-08-22T04:00:03.809Z,6.23
2017-08-22T04:02:10.229Z,5.53
2017-08-22T04:04:16.259Z,5.30
2017-08-22T04:06:21.923Z,5.67
2017-08-22T04:08:28.846Z,5.90
2017-08-22T04:10:35.686Z,5.73
2017-08-22T04:12:45.896Z,6.00
2017-08-22T04:14:55.003Z,5.70
2017-08-22T04:17:03.796Z,5.63
2017-08-22T04:19:12.453Z,6.43
2017-08-22T04:21:18.309Z,5.67
2017-08-22T04:23:23.998Z,5.20
2017-08-22T04:25:29.990Z,5.50
2017-08-22T04:27:36.412Z,6.03
2017-08-22T04:29:42.988Z,5.27
2017-08-22T04:31:50.801Z,5.87
2017-08-22T04:33:59.525Z,5.00
2017-08-22T04:36:08.406Z,5.50
2017-08-22T04:38:14.471Z,5.90
2017-08-22T04:40:20.655Z,5.63
2017-08-22T04:42:26.629Z,5.27
2017-08-22T04:44:33.467Z,6.20
2017-08-22T04:46:39.404Z,5.87
2017-08-22T04:48:45.576Z,5.43
2017-08-22T04:50:51.602Z,5.80
2017-08-22T04:52:58.087Z,5.77
2017-08-22T04:55:07.667Z,5.07
2017-08-22T04:57:14.404Z,5.00
2017-08-22T04:59:20.658Z,5.67
2017-08-22T05:01:26.729Z,5.30
2017-08-22T05:03:32.823Z,5.77
2017-08-22T05:05:38.733Z,5.27
2017-08-22T05:07:45.789Z,6.00
2017-08-22T05:09:53.810Z,5.40
2017-08-22T05:12:06.260Z,4.83
2017-08-22T05:14:13.650Z,5.40
2017-08-22T05:16:20.629Z,5.93
2017-08-22T05:18:31.027Z,4.97
2017-08-22T05:20:37.433Z,5.77
2017-08-22T05:22:46.289Z,5.30
2017-08-22T05:24:55.401Z,5.57
2017-08-22T05:27:03.254Z,5.67
2017-08-22T05:29:15.650Z,4.67
2017-08-22T05:31:23.118Z,5.40
2017-08-22T05:33:30.131Z,5.70
2017-08-22T05:35:36.529Z,5.40
2017-08-22T05:37:42.138Z,5.30
2017-08-22T05:39:49.585Z,5.07
2017-08-22T05:41:57.873Z,5.50
2017-08-22T05:44:06.391Z,4.90
2017-08-22T05:46:12.991Z,5.50
2017-08-22T05:48:18.749Z,5.33
2017-08-22T05:50:25.158Z,5.43
2017-08-22T05:52:31.207Z,5.20
2017-08-22T05:54:37.726Z,5.37
2017-08-22T05:56:45.482Z,5.30
2017-08-22T05:58:53.341Z,5.57
2017-08-22T06:01:04.266Z,5.20
2017-08-22T06:03:11.134Z,5.10
2017-08-22T06:05:17.452Z,4.40
2017-08-22T06:07:24.498Z,4.90
2017-08-22T06:09:30.276Z,4.67
2017-08-22T06:11:36.027Z,5.00
2017-08-22T06:13:42.659Z,5.03
2017-08-22T06:15:52.060Z,5.20
2017-08-22T06:18:02.482Z,5.00
2017-08-22T06:20:09.881Z,4.63
2017-08-22T06:22:15.572Z,4.77
2017-08-22T06:24:21.793Z,5.47
2017-08-22T06:26:28.550Z,4.83
2017-08-22T06:28:34.297Z,4.10
2017-08-22T06:30:41.147Z,4.77
2017-08-22T06:32:49.157Z,5.00
2017-08-22T06:34:55.670Z,4.70
2017-08-22T06:37:03.588Z,4.20
2017-08-22T06:39:10.043Z,6.23
2017-08-22T06:41:16.287Z,4.40
2017-08-22T06:43:25.915Z,4.33
2017-08-22T06:45:32.203Z,4.80
2017-08-22T06:47:40.356Z,4.93
2017-08-22T06:49:52.845Z,4.60
2017-08-22T06:52:06.608Z,4.00
2017-08-22T06:54:13.688Z,5.00
2017-08-22T06:56:25.477Z,4.53
2017-08-22T06:58:32.573Z,4.83
2017-08-22T07:00:38.786Z,4.60
2017-08-22T07:02:44.593Z,4.33
2017-08-22T07:04:52.461Z,4.57
2017-08-22T07:06:59.526Z,3.60
2017-08-22T07:09:17.244Z,5.13
2017-08-22T07:11:47.002Z,5.50
2017-08-22T07:13:54.711Z,4.60
2017-08-22T07:16:02.138Z,4.97
2017-08-22T07:18:08.989Z,4.50
2017-08-22T07:20:14.994Z,4.77
2017-08-22T07:22:20.685Z,5.53
2017-08-22T07:24:26.510Z,4.80
2017-08-22T07:26:33.435Z,4.40
2017-08-22T07:28:39.072Z,4.20
2017-08-22T07:30:50.602Z,5.13
2017-08-22T07:32:58.364Z,4.33
2017-08-22T07:35:07.647Z,4.73
2017-08-22T07:37:15.342Z,4.20
2017-08-22T07:39:22.054Z,4.77
2017-08-22T07:41:28.682Z,4.40
2017-08-22T07:43:36.813Z,4.30
2017-08-22T07:45:42.720Z,4.30
2017-08-22T07:47:50.093Z,4.80
2017-08-22T07:49:57.528Z,5.17
2017-08-22T07:52:06.066Z,4.97
2017-08-22T07:54:13.722Z,5.00
2017-08-22T07:56:19.306Z,4.23
2017-08-22T07:58:24.906Z,5.33
2017-08-22T08:00:31.050Z,4.90
2017-08-22T08:02:36.721Z,4.87
2017-08-22T08:04:47.002Z,5.50
2017-08-22T08:06:55.014Z,4.90
2017-08-22T08:09:06.376Z,4.90
2017-08-22T08:11:11.978Z,4.90
2017-08-22T08:13:19.464Z,5.10
2017-08-22T08:15:25.121Z,4.90
2017-08-22T08:17:30.804Z,5.63
2017-08-22T08:19:38.604Z,4.93
2017-08-22T08:21:45.924Z,4.87
2017-08-22T08:23:54.742Z,6.07
2017-08-22T08:26:07.548Z,4.40
2017-08-22T08:28:13.953Z,4.13
2017-08-22T08:30:19.777Z,5.13
2017-08-22T08:32:27.157Z,4.20
2017-08-22T08:34:33.995Z,4.20
2017-08-22T08:36:40.431Z,3.80
2017-08-22T08:39:50.011Z,3.93
2017-08-22T08:41:55.606Z,4.03
2017-08-22T08:44:05.350Z,3.30
2017-08-22T08:46:11.354Z,3.50
2017-08-22T08:48:18.964Z,4.07
2017-08-22T08:50:27.087Z,3.70
2017-08-22T08:52:32.872Z,3.40
2017-08-22T08:54:38.511Z,3.60
2017-08-22T08:56:48.509Z,4.20
2017-08-22T08:58:57.161Z,3.50
2017-08-22T09:01:06.619Z,3.83
2017-08-22T09:03:15.502Z,3.77
2017-08-22T09:05:22.373Z,3.30
2017-08-22T09:07:29.203Z,3.43
2017-08-22T09:09:36.317Z,3.50
2017-08-22T09:11:43.256Z,3.83
2017-08-22T09:13:49.742Z,5.00
2017-08-22T09:15:58.070Z,4.30
2017-08-22T09:18:07.813Z,4.60
2017-08-22T09:20:14.248Z,4.30
2017-08-22T09:22:20.385Z,5.40
2017-08-22T09:24:26.084Z,5.20
2017-08-22T09:26:31.712Z,4.63
2017-08-22T09:28:38.024Z,3.40
2017-08-22T09:30:46.000Z,5.40
2017-08-22T09:32:55.330Z,5.63
2017-08-22T09:35:06.821Z,4.57
2017-08-22T09:37:12.498Z,4.93
2017-08-22T09:39:18.145Z,3.90
2017-08-22T09:41:24.626Z,3.90
2017-08-22T09:43:31.033Z,3.87
2017-08-22T09:45:36.908Z,4.43
2017-08-22T09:47:43.960Z,4.90
2017-08-22T09:49:51.433Z,4.53
2017-08-22T09:51:59.278Z,3.47
2017-08-22T09:54:08.340Z,3.40
2017-08-22T09:56:14.536Z,4.37
2017-08-22T09:58:20.578Z,3.73
2017-08-22T10:00:27.788Z,3.80
2017-08-22T10:02:33.908Z,3.33
2017-08-22T10:04:39.736Z,4.10
2017-08-22T10:06:49.670Z,3.60
2017-08-22T10:08:56.419Z,3.50
2017-08-22T10:11:08.229Z,3.63
2017-08-22T10:13:14.433Z,3.10
2017-08-22T10:15:21.455Z,3.83
2017-08-22T10:17:27.465Z,3.50
2017-08-22T10:19:36.365Z,3.27
2017-08-22T10:21:43.981Z,3.90
2017-08-22T10:23:51.235Z,3.43
2017-08-22T10:25:59.862Z,3.37
2017-08-22T10:28:09.078Z,4.03
2017-08-22T10:30:32.501Z,4.40
2017-08-22T10:32:39.940Z,3.50
2017-08-22T10:34:47.734Z,3.60
2017-08-22T10:36:55.022Z,3.53
2017-08-22T10:39:04.408Z,3.20
2017-08-22T10:41:10.517Z,3.23
2017-08-22T10:43:16.609Z,3.00
2017-08-22T10:45:23.601Z,3.73
2017-08-22T10:47:29.297Z,3.67
2017-08-22T10:49:35.419Z,3.70
2017-08-22T10:51:44.060Z,3.57
2017-08-22T10:53:52.155Z,3.00
2017-08-22T10:56:05.458Z,2.93
2017-08-22T10:58:11.079Z,3.57
2017-08-22T11:00:16.708Z,3.97
2017-08-22T11:02:22.420Z,3.20
2017-08-22T11:04:30.037Z,3.60
2017-08-22T11:06:36.498Z,4.40
2017-08-22T11:08:43.760Z,3.33
2017-08-22T11:10:51.126Z,4.20
2017-08-22T11:12:58.867Z,3.90
2017-08-22T11:15:08.984Z,3.87
2017-08-22T11:17:15.928Z,3.20
2017-08-22T11:19:21.775Z,3.27
2017-08-22T11:21:27.719Z,3.60
2017-08-22T11:23:34.108Z,3.40
2017-08-22T11:25:40.710Z,3.10
2017-08-22T11:27:55.649Z,3.40
2017-08-22T11:30:21.214Z,3.73
2017-08-22T11:32:30.225Z,3.20
2017-08-22T11:34:46.128Z,3.33
2017-08-22T11:37:04.315Z,3.90
2017-08-22T11:39:11.834Z,3.37
2017-08-22T11:41:22.174Z,3.90
2017-08-22T11:43:28.777Z,3.43
2017-08-22T11:45:35.926Z,3.67
2017-08-22T11:48:12.690Z,3.17
2017-08-22T11:50:29.973Z,3.10
2017-08-22T11:52:37.269Z,3.10
2017-08-22T11:57:08.703Z,3.73
2017-08-22T11:59:14.966Z,3.10
2017-08-22T12:01:20.907Z,3.00
2017-08-22T12:03:26.961Z,3.53
2017-08-22T12:05:33.013Z,4.50
2017-08-22T12:07:38.912Z,3.60
2017-08-22T12:09:46.721Z,3.50
2017-08-22T12:11:53.669Z,3.43
2017-08-22T12:14:03.806Z,3.20
2017-08-22T12:16:09.771Z,3.90
2017-08-22T12:18:15.781Z,3.13
2017-08-22T12:20:21.719Z,3.70
2017-08-22T12:22:32.195Z,3.73
2017-08-22T12:24:38.128Z,3.90
2017-08-22T12:26:44.910Z,3.50
2017-08-22T12:28:51.939Z,3.30
2017-08-22T12:30:59.531Z,3.20
2017-08-22T12:33:08.343Z,3.50
2017-08-22T12:35:14.223Z,3.07
2017-08-22T12:37:20.219Z,3.10
2017-08-22T12:39:26.123Z,3.17
2017-08-22T12:41:33.124Z,3.20
2017-08-22T12:43:38.935Z,3.07
2017-08-22T12:45:48.815Z,3.50
2017-08-22T12:47:55.891Z,3.13
2017-08-22T12:50:06.085Z,3.97
2017-08-22T12:52:15.913Z,3.57
2017-08-22T12:54:22.821Z,3.10
2017-08-22T12:56:28.661Z,2.90
2017-08-22T12:58:34.296Z,3.50
2017-08-22T13:00:40.583Z,3.30
2017-08-22T13:02:51.719Z,2.90
2017-08-22T13:04:58.948Z,2.97
2017-08-22T13:07:09.180Z,3.30
2017-08-22T13:09:15.056Z,3.30
2017-08-22T13:11:20.631Z,2.93
2017-08-22T13:13:26.609Z,3.10
2017-08-22T13:15:36.631Z,4.00
2017-08-22T13:17:42.225Z,3.10
2017-08-22T13:19:49.699Z,3.50
2017-08-22T13:21:56.879Z,2.70
2017-08-22T13:24:07.167Z,3.30
2017-08-22T13:26:12.631Z,3.07
2017-08-22T13:28:18.886Z,3.83
2017-08-22T13:30:25.843Z,2.67
2017-08-22T13:32:32.635Z,3.10
2017-08-22T13:34:39.792Z,3.00
2017-08-22T13:36:46.536Z,3.23
2017-08-22T13:38:55.399Z,2.90
2017-08-22T13:41:14.634Z,3.43
2017-08-22T13:43:21.335Z,2.53
2017-08-22T13:45:27.219Z,3.57
2017-08-22T13:47:33.824Z,3.20
2017-08-22T13:49:39.836Z,3.10
2017-08-22T13:51:45.143Z,3.27
2017-08-22T13:53:50.614Z,3.10
2017-08-22T13:55:56.990Z,3.30
2017-08-22T13:58:06.869Z,2.93
2017-08-22T14:00:13.713Z,3.10
2017-08-22T14:02:20.547Z,2.90
2017-08-22T14:04:27.270Z,3.10
2017-08-22T14:06:32.984Z,3.50
2017-08-22T14:08:39.917Z,2.67
2017-08-22T14:10:47.139Z,2.90
2017-08-22T14:12:54.842Z,3.60
2017-08-22T14:15:03.634Z,3.23
2017-08-22T14:17:09.148Z,3.20
2017-08-22T14:19:14.779Z,3.47
2017-08-22T14:21:20.957Z,3.20
2017-08-22T14:23:27.079Z,3.43
2017-08-22T14:25:33.092Z,3.87
2017-08-22T14:27:38.735Z,3.23
2017-08-22T14:29:44.166Z,3.33
2017-08-22T14:31:49.791Z,3.00
2017-08-22T14:34:02.453Z,2.97
2017-08-22T14:36:12.241Z,3.27
2017-08-22T14:38:30.071Z,3.57
2017-08-22T14:40:39.482Z,3.40
2017-08-22T14:42:51.942Z,3.47
2017-08-22T14:44:58.417Z,3.40
2017-08-22T14:47:08.311Z,3.63
2017-08-22T14:49:14.874Z,3.23
2017-08-22T14:51:20.657Z,3.10
2017-08-22T14:53:26.986Z,2.97
2017-08-22T14:55:33.203Z,2.80
2017-08-22T14:57:39.412Z,3.20
2017-08-22T14:59:50.521Z,3.27
2017-08-22T15:02:04.632Z,3.03
2017-08-22T15:04:10.501Z,3.43
2017-08-22T15:06:16.743Z,3.30
2017-08-22T15:08:22.314Z,3.37
2017-08-22T15:10:28.062Z,3.20
2017-08-22T15:12:34.430Z,2.90
2017-08-22T15:14:40.219Z,3.37
2017-08-22T15:16:47.238Z,2.80
2017-08-22T15:18:55.166Z,2.93
2017-08-22T15:21:03.482Z,2.60
2017-08-22T15:23:09.241Z,3.03
2017-08-22T15:25:15.342Z,3.40
2017-08-22T15:27:21.033Z,3.10
2017-08-22T15:29:27.762Z,3.20
2017-08-22T15:31:33.948Z,3.00
2017-08-22T15:33:39.660Z,3.70
2017-08-22T15:35:46.296Z,3.07
2017-08-22T15:37:54.454Z,3.10
2017-08-22T15:40:03.456Z,2.60
2017-08-22T15:42:09.433Z,2.90
2017-08-22T15:44:16.431Z,3.03
2017-08-22T15:46:22.288Z,3.03
2017-08-22T15:48:28.178Z,2.90
2017-08-22T15:50:35.734Z,3.10
2017-08-22T15:52:41.154Z,3.50
2017-08-22T15:54:51.508Z,2.70
2017-08-22T15:57:08.092Z,3.87
2017-08-22T15:59:13.762Z,3.20
2017-08-22T16:01:19.223Z,2.90
2017-08-22T16:03:24.988Z,3.40
2017-08-22T16:05:30.878Z,3.37
2017-08-22T16:07:36.666Z,2.67
2017-08-22T16:09:42.754Z,3.27
2017-08-22T16:11:52.808Z,2.80
2017-08-22T16:13:59.368Z,3.00
2017-08-22T16:16:08.053Z,2.77
2017-08-22T16:18:13.916Z,3.17
2017-08-22T16:20:19.776Z,3.50
2017-08-22T16:22:26.469Z,3.27
2017-08-22T16:24:32.278Z,2.70
2017-08-22T16:26:39.184Z,3.23
2017-08-22T16:28:45.565Z,2.97
2017-08-22T16:30:56.973Z,3.63
2017-08-22T16:33:07.442Z,2.90
2017-08-22T16:35:13.746Z,3.50
2017-08-22T16:37:19.574Z,3.33
2017-08-22T16:39:25.652Z,2.87
2017-08-22T16:41:32.054Z,2.83
2017-08-22T16:43:37.840Z,3.10
2017-08-22T16:45:45.110Z,2.70
2017-08-22T16:47:53.454Z,3.00
2017-08-22T16:50:03.358Z,2.73
2017-08-22T16:52:09.694Z,3.30
2017-08-22T16:54:16.030Z,3.13
2017-08-22T16:56:21.853Z,3.33
2017-08-22T16:58:27.562Z,3.30
2017-08-22T17:00:33.449Z,3.40
2017-08-22T17:02:39.293Z,3.03
2017-08-22T17:04:46.876Z,4.00
2017-08-22T17:06:52.999Z,3.40
2017-08-22T17:09:02.136Z,3.47
2017-08-22T17:11:08.661Z,3.43
2017-08-22T17:13:14.476Z,3.33
2017-08-22T17:15:39.657Z,4.40
2017-08-22T17:17:48.079Z,3.03
2017-08-22T17:19:55.325Z,3.30
2017-08-22T17:22:05.328Z,2.73
2017-08-22T17:24:11.416Z,3.13
2017-08-22T17:26:17.611Z,3.37
2017-08-22T17:28:23.385Z,3.33
2017-08-22T17:30:29.731Z,3.47
2017-08-22T17:32:35.379Z,3.30
2017-08-22T17:34:41.125Z,3.40
2017-08-22T17:36:50.148Z,3.33
2017-08-22T17:38:58.880Z,3.13
2017-08-22T17:41:09.201Z,3.70
2017-08-22T17:43:15.569Z,3.37
2017-08-22T17:45:21.272Z,3.03
2017-08-22T17:47:28.135Z,2.97
2017-08-22T17:49:34.556Z,3.30
2017-08-22T17:51:40.652Z,3.23
2017-08-22T17:53:48.632Z,3.60
2017-08-22T17:55:56.603Z,3.70
2017-08-22T17:58:06.057Z,3.53
2017-08-22T18:00:12.922Z,3.17
2017-08-22T18:02:18.944Z,3.30
2017-08-22T18:04:24.892Z,3.10
2017-08-22T18:06:31.546Z,3.47
2017-08-22T18:08:37.603Z,3.33
2017-08-22T18:10:45.103Z,3.60
2017-08-22T18:12:53.377Z,2.83
2017-08-22T18:15:05.566Z,2.60
2017-08-22T18:17:11.938Z,3.00
2017-08-22T18:19:20.361Z,3.23
2017-08-22T18:21:28.336Z,2.67
2017-08-22T18:23:37.101Z,2.63
2017-08-22T18:25:43.217Z,2.87
2017-08-22T18:28:16.515Z,3.10
2017-08-22T18:30:22.609Z,3.20
2017-08-22T18:32:32.697Z,2.87
2017-08-22T18:34:44.882Z,2.70
2017-08-22T18:36:58.564Z,3.10
2017-08-22T18:39:10.600Z,2.80
2017-08-22T18:41:21.991Z,3.23
2017-08-22T18:43:35.578Z,2.90
2017-08-22T18:48:27.986Z,3.23
2017-08-22T18:50:41.763Z,2.53
2017-08-22T18:52:56.417Z,2.90
2017-08-22T18:55:16.136Z,3.30
2017-08-22T18:57:24.494Z,2.77
2017-08-22T18:59:36.971Z,3.00
2017-08-22T19:01:45.606Z,2.70
2017-08-22T19:04:00.036Z,2.40
2017-08-22T19:06:09.419Z,3.07
2017-08-22T19:08:16.077Z,3.17
2017-08-22T19:10:23.026Z,3.20
2017-08-22T19:12:31.302Z,2.73
2017-08-22T19:14:42.440Z,2.70
2017-08-22T19:16:55.203Z,2.60
2017-08-22T19:19:12.250Z,2.80
2017-08-22T19:21:21.777Z,2.60
2017-08-22T19:23:29.709Z,2.40
2017-08-22T19:25:39.208Z,2.57
2017-08-22T19:27:52.838Z,2.27
2017-08-22T19:30:02.863Z,2.17
2017-08-22T19:32:14.264Z,3.20
2017-08-22T19:34:24.379Z,2.37
2017-08-22T19:36:32.328Z,2.57
2017-08-22T19:38:40.890Z,28.53
2017-08-22T19:40:50.847Z,188.93
2017-08-22T19:42:59.684Z,415.93
2017-08-22T19:45:09.802Z,356.37
2017-08-22T19:47:16.579Z,275.43
2017-08-22T19:49:23.012Z,207.10
2017-08-22T19:51:30.916Z,186.53
2017-08-22T19:53:38.286Z,154.70
2017-08-22T19:55:48.138Z,151.07
2017-08-22T19:58:00.053Z,134.20
2017-08-22T20:00:08.683Z,134.07
2017-08-22T20:02:15.670Z,113.50
2017-08-22T20:04:22.169Z,114.73
2017-08-22T20:06:27.593Z,86.70
2017-08-22T20:08:33.793Z,242.27
2017-08-22T20:10:39.613Z,356.97
2017-08-22T20:12:48.397Z,479.43
2017-08-22T20:14:58.386Z,306.93
2017-08-22T20:17:09.358Z,267.83
2017-08-22T20:19:20.126Z,189.40
2017-08-22T20:21:28.739Z,185.27
2017-08-22T20:23:35.250Z,161.40
2017-08-22T20:25:41.960Z,171.20
2017-08-22T20:27:51.786Z,163.87
2017-08-22T20:30:06.944Z,158.87
2017-08-22T20:32:13.533Z,132.80
2017-08-22T20:34:19.806Z,130.00
2017-08-22T20:36:26.891Z,136.53
2017-08-22T20:38:34.137Z,398.27
2017-08-22T20:40:43.738Z,462.53
2017-08-22T20:42:53.131Z,440.23
2017-08-22T20:45:01.806Z,375.63
2017-08-22T20:47:09.675Z,268.83
2017-08-22T20:49:16.804Z,262.67
2017-08-22T20:51:23.188Z,227.63
2017-08-22T20:53:30.643Z,211.00
2017-08-22T20:55:37.914Z,200.60
2017-08-22T20:57:51.262Z,173.87
2017-08-22T20:59:59.852Z,159.20
2017-08-22T21:02:07.590Z,159.50
2017-08-22T21:04:15.736Z,725.37
2017-08-22T21:06:22.382Z,988.30
2017-08-22T21:08:40.000Z,449.37
2017-08-22T21:10:51.382Z,360.33
2017-08-22T21:12:59.656Z,371.90
2017-08-22T21:15:05.997Z,293.80
2017-08-22T21:17:11.640Z,253.57
2017-08-22T21:19:18.213Z,247.90
2017-08-22T21:21:24.835Z,226.27
2017-08-22T21:23:30.944Z,192.73
2017-08-22T21:25:38.476Z,200.63
2017-08-22T21:27:47.688Z,161.87
2017-08-22T21:29:57.999Z,169.07
2017-08-22T21:32:06.976Z,135.00
2017-08-22T21:34:16.985Z,140.30
2017-08-22T21:36:25.034Z,132.70
2017-08-22T21:38:33.191Z,124.33
2017-08-22T21:40:39.303Z,123.80
2017-08-22T21:42:48.052Z,98.23
2017-08-22T21:44:55.306Z,209.10
2017-08-22T21:47:02.757Z,392.97
2017-08-22T21:49:08.765Z,396.70
2017-08-22T21:51:16.237Z,360.27
2017-08-22T21:53:24.200Z,360.83
2017-08-22T21:55:30.996Z,291.90
2017-08-22T21:57:38.241Z,228.27
2017-08-22T21:59:52.448Z,215.10
2017-08-22T22:02:02.853Z,185.17
2017-08-22T22:04:17.284Z,196.57
2017-08-22T22:06:22.972Z,175.27
2017-08-22T22:08:29.875Z,194.33
2017-08-22T22:10:36.346Z,128.20
2017-08-22T22:12:43.216Z,101.00
2017-08-22T22:14:52.959Z,119.20
2017-08-22T22:17:02.923Z,100.87
2017-08-22T22:19:12.788Z,104.80
2017-08-22T22:21:20.580Z,109.27
2017-08-22T22:23:27.605Z,94.50
2017-08-22T22:25:33.771Z,105.37
2017-08-22T22:27:40.734Z,90.90
2017-08-22T22:29:51.013Z,85.20
2017-08-22T22:31:59.745Z,87.20
2017-08-22T22:34:05.895Z,73.57
2017-08-22T22:36:12.697Z,69.73
2017-08-22T22:38:19.278Z,73.00
2017-08-22T22:40:25.066Z,57.53
2017-08-22T22:42:31.731Z,62.03
2017-08-22T22:44:37.875Z,54.63
2017-08-22T22:46:47.685Z,580.00
2017-08-22T22:48:59.478Z,449.50
2017-08-22T22:51:05.310Z,240.07
2017-08-22T22:53:11.560Z,200.10
2017-08-22T22:55:18.288Z,223.00
2017-08-22T22:57:24.220Z,181.07
2017-08-22T22:59:29.951Z,173.47
2017-08-22T23:01:37.007Z,166.07
2017-08-22T23:04:07.648Z,161.37
2017-08-22T23:06:19.941Z,135.77
2017-08-22T23:13:13.292Z,126.63
2017-08-22T23:15:21.439Z,106.17
2017-08-22T23:17:28.525Z,85.87
2017-08-22T23:19:35.310Z,85.70
2017-08-22T23:21:41.773Z,80.23
2017-08-22T23:23:53.802Z,77.33
2017-08-22T23:26:01.017Z,64.57
2017-08-22T23:28:07.018Z,71.30
2017-08-22T23:30:13.536Z,58.80
2017-08-22T23:32:19.463Z,57.10
2017-08-22T23:34:25.918Z,52.93
2017-08-22T23:36:32.906Z,56.90
2017-08-22T23:38:39.210Z,47.70
2017-08-22T23:40:51.058Z,158.67
2017-08-22T23:43:04.485Z,360.83
2017-08-22T23:45:10.637Z,405.73
2017-08-22T23:47:16.891Z,324.50
2017-08-22T23:49:23.490Z,295.90
2017-08-22T23:51:32.665Z,217.97
2017-08-22T23:53:42.247Z,197.40
2017-08-22T23:55:53.305Z,184.07
2017-08-22T23:58:01.396Z,176.50
